createdAt,value
2024-04-03T00:01:28.882Z,97397.59
2024-04-03T00:03:56.893Z,97398.61
2024-04-03T00:06:24.778Z,97401.30
2024-04-03T00:08:52.688Z,97408.92
2024-04-03T00:11:20.592Z,97410.33
2024-04-03T00:13:48.542Z,97410.26
2024-04-03T00:16:16.421Z,97407.34
2024-04-03T00:18:44.601Z,97409.29
2024-04-03T00:21:13.661Z,97410.77
2024-04-03T00:23:41.730Z,97409.65
2024-04-03T00:26:09.737Z,97411.84
2024-04-03T00:28:37.794Z,97412.41
2024-04-03T00:31:05.735Z,97412.59
2024-04-03T00:33:33.679Z,97413.20
2024-04-03T00:36:01.830Z,97414.85
2024-04-03T00:38:29.863Z,97418.38
2024-04-03T00:40:59.070Z,97423.91
2024-04-03T00:43:27.763Z,97425.40
2024-04-03T00:45:59.820Z,97421.66
2024-04-03T00:48:27.884Z,97421.86
2024-04-03T00:50:56.566Z,97425.50
2024-04-03T00:53:25.215Z,97423.19
2024-04-03T00:55:53.295Z,97419.61
2024-04-03T00:58:21.247Z,97421.80
2024-04-03T01:00:49.312Z,97426.48
2024-04-03T01:03:17.438Z,97430.42
2024-04-03T01:05:45.441Z,97436.06
2024-04-03T01:08:13.460Z,97437.80
2024-04-03T01:10:41.499Z,97440.11
2024-04-03T01:13:09.634Z,97441.59
2024-04-03T01:15:37.629Z,97443.41
2024-04-03T01:18:05.662Z,97447.69
2024-04-03T01:20:33.660Z,97446.02
2024-04-03T01:23:01.613Z,97448.56
2024-04-03T01:25:43.222Z,97451.73
2024-04-03T01:28:18.790Z,97446.55
2024-04-03T01:30:46.815Z,97447.75
2024-04-03T01:33:14.703Z,97448.52
2024-04-03T01:35:42.665Z,97448.02
2024-04-03T01:38:13.635Z,97451.20
2024-04-03T01:40:41.503Z,97448.38
2024-04-03T01:43:09.390Z,97447.23
2024-04-03T01:45:37.333Z,97440.98
2024-04-03T01:48:05.386Z,97440.56
2024-04-03T01:50:40.197Z,97439.46
2024-04-03T01:53:08.185Z,97447.91
2024-04-03T01:55:36.318Z,97450.91
2024-04-03T01:58:04.446Z,97452.69
2024-04-03T02:00:32.565Z,97455.59
2024-04-03T02:03:00.617Z,97456.52
2024-04-03T02:05:29.269Z,97462.92
2024-04-03T02:07:57.213Z,97461.05
2024-04-03T02:10:25.250Z,97464.24
2024-04-03T02:12:53.161Z,97463.26
2024-04-03T02:15:21.026Z,97466.46
2024-04-03T02:17:48.945Z,97470.52
2024-04-03T02:20:17.028Z,97471.15
2024-04-03T02:22:48.079Z,97468.05
2024-04-03T02:25:17.741Z,97461.73
2024-04-03T02:27:45.655Z,97467.29
2024-04-03T02:30:13.717Z,97466.22
2024-04-03T02:32:41.728Z,97469.35
2024-04-03T02:35:09.723Z,97473.53
2024-04-03T02:37:37.668Z,97464.60
2024-04-03T02:40:05.809Z,97470.70
2024-04-03T02:42:33.736Z,97468.90
2024-04-03T02:45:01.618Z,97474.33
2024-04-03T02:47:29.645Z,97472.06
2024-04-03T02:49:57.810Z,97476.35
2024-04-03T02:52:25.713Z,97474.05
2024-04-03T02:54:53.615Z,97476.77
2024-04-03T02:57:21.535Z,97473.48
2024-04-03T02:59:49.501Z,97477.77
2024-04-03T03:02:17.503Z,97484.70
2024-04-03T03:04:45.527Z,97483.64
2024-04-03T03:07:13.640Z,97484.02
2024-04-03T03:09:41.729Z,97489.41
2024-04-03T03:12:09.816Z,97494.10
2024-04-03T03:14:37.831Z,97496.05
2024-04-03T03:17:05.921Z,97502.41
2024-04-03T03:19:33.844Z,97498.77
2024-04-03T03:22:01.741Z,97503.74
2024-04-03T03:24:29.807Z,97504.59
2024-04-03T03:26:57.796Z,97504.64
2024-04-03T03:29:25.716Z,97506.50
2024-04-03T03:31:53.678Z,97514.11
2024-04-03T03:34:21.682Z,97519.66
2024-04-03T03:36:49.653Z,97523.67
2024-04-03T03:39:17.680Z,97526.89
2024-04-03T03:41:45.563Z,97524.38
2024-04-03T03:44:13.656Z,97527.50
2024-04-03T03:46:41.729Z,97528.34
2024-04-03T03:49:28.374Z,97529.23
2024-04-03T03:52:14.675Z,97534.25
2024-04-03T03:54:42.718Z,97535.88
2024-04-03T03:57:10.749Z,97542.93
2024-04-03T03:59:38.614Z,97542.48
2024-04-03T04:02:06.766Z,97544.96
2024-04-03T04:04:34.698Z,97546.63
2024-04-03T04:16:24.212Z,97555.73
2024-04-03T04:18:52.612Z,97562.98
2024-04-03T04:21:22.623Z,97559.63
2024-04-03T04:23:50.646Z,97565.95
2024-04-03T04:26:18.537Z,97572.67
2024-04-03T04:28:46.518Z,97575.20
2024-04-03T04:31:14.498Z,97580.70
2024-04-03T04:33:42.432Z,97583.30
2024-04-03T04:36:10.480Z,97588.41
2024-04-03T04:38:38.414Z,97590.89
2024-04-03T04:41:06.450Z,97589.26
2024-04-03T04:43:34.641Z,97588.64
2024-04-03T04:46:03.737Z,97588.91
2024-04-03T04:48:32.663Z,97592.34
2024-04-03T04:51:01.753Z,97590.00
2024-04-03T04:53:30.068Z,97592.02
2024-04-03T04:56:00.924Z,97587.58
2024-04-03T04:58:28.979Z,97585.98
2024-04-03T05:01:09.755Z,97594.93
2024-04-03T05:03:37.747Z,97599.46
2024-04-03T05:06:06.127Z,97602.89
2024-04-03T05:08:34.207Z,97608.97
2024-04-03T05:11:02.348Z,97610.84
2024-04-03T05:13:31.283Z,97608.25
2024-04-03T05:16:05.488Z,97606.11
2024-04-03T05:18:34.029Z,97602.73
2024-04-03T05:21:02.079Z,97596.76
2024-04-03T05:23:30.828Z,97593.21
2024-04-03T05:25:59.422Z,97590.55
2024-04-03T05:28:27.545Z,97587.73
2024-04-03T05:30:55.746Z,97588.52
2024-04-03T05:33:23.701Z,97591.81
2024-04-03T05:35:58.125Z,97594.64
2024-04-03T05:38:26.169Z,97589.48
2024-04-03T05:41:02.335Z,97587.00
2024-04-03T05:43:38.479Z,97587.09
2024-04-03T05:46:06.528Z,97590.29
2024-04-03T05:48:34.526Z,97591.46
2024-04-03T05:51:06.660Z,97594.11
2024-04-03T05:53:35.219Z,97594.29
2024-04-03T05:56:04.552Z,97593.52
2024-04-03T05:58:32.475Z,97593.98
2024-04-03T06:01:01.108Z,97596.83
2024-04-03T06:03:29.207Z,97596.70
2024-04-03T06:05:59.258Z,97601.08
2024-04-03T06:08:27.478Z,97604.47
2024-04-03T06:10:55.672Z,97605.13
2024-04-03T06:13:23.666Z,97606.04
2024-04-03T06:15:51.675Z,97611.52
2024-04-03T06:18:19.690Z,97614.17
2024-04-03T06:20:47.616Z,97612.15
2024-04-03T06:23:15.620Z,97608.64
2024-04-03T06:25:43.588Z,97608.15
2024-04-03T06:28:11.642Z,97604.86
2024-04-03T06:30:39.741Z,97604.80
2024-04-03T06:33:07.714Z,97604.03
2024-04-03T06:35:35.751Z,97601.30
2024-04-03T06:38:03.871Z,97602.40
2024-04-03T06:40:31.925Z,97597.48
2024-04-03T06:43:04.361Z,97599.45
2024-04-03T06:45:32.947Z,97601.27
2024-04-03T06:48:00.995Z,97603.98
2024-04-03T06:50:29.078Z,97605.33
2024-04-03T06:52:59.879Z,97602.70
2024-04-03T06:55:27.890Z,97603.73
2024-04-03T06:58:00.812Z,97601.55
2024-04-03T07:00:28.744Z,97605.58
2024-04-03T07:02:56.692Z,97617.31
2024-04-03T07:05:25.038Z,97618.48
2024-04-03T07:07:53.123Z,97616.39
2024-04-03T07:10:22.093Z,97619.02
2024-04-03T07:12:50.032Z,97620.34
2024-04-03T07:15:18.083Z,97618.52
2024-04-03T07:17:46.140Z,97617.73
2024-04-03T07:20:14.361Z,97621.97
2024-04-03T07:22:42.345Z,97625.50
2024-04-03T07:25:12.278Z,97630.09
2024-04-03T07:27:47.923Z,97640.10
2024-04-03T07:30:17.593Z,97647.43
2024-04-03T07:32:45.668Z,97643.45
2024-04-03T07:35:13.874Z,97640.14
2024-04-03T07:37:43.300Z,97639.45
2024-04-03T07:40:11.959Z,97641.48
2024-04-03T07:42:41.323Z,97640.73
2024-04-03T07:45:09.696Z,97640.60
2024-04-03T07:47:37.606Z,97639.60
2024-04-03T07:50:09.254Z,97637.07
2024-04-03T07:52:39.054Z,97638.44
2024-04-03T07:55:10.588Z,97635.14
2024-04-03T07:57:38.777Z,97632.02
2024-04-03T08:00:10.824Z,97623.38
2024-04-03T08:02:43.454Z,97624.59
2024-04-03T08:05:14.732Z,97634.02
2024-04-03T08:07:45.624Z,97635.15
2024-04-03T08:10:14.012Z,97636.92
2024-04-03T08:12:42.163Z,97634.66
2024-04-03T08:15:12.451Z,97626.03
2024-04-03T08:17:40.515Z,97623.77
2024-04-03T08:20:11.498Z,97618.50
2024-04-03T08:22:39.699Z,97617.38
2024-04-03T08:25:08.302Z,97610.83
2024-04-03T08:27:36.409Z,97610.52
2024-04-03T08:30:05.145Z,97609.81
2024-04-03T08:32:34.482Z,97608.36
2024-04-03T08:35:04.971Z,97608.86
2024-04-03T08:37:38.427Z,97613.94
2024-04-03T08:40:14.426Z,97614.33
2024-04-03T08:42:42.457Z,97617.19
2024-04-03T08:45:10.465Z,97617.10
2024-04-03T08:47:38.374Z,97614.42
2024-04-03T08:50:06.605Z,97618.22
2024-04-03T08:52:34.754Z,97608.52
2024-04-03T08:55:03.385Z,97611.51
2024-04-03T08:57:31.502Z,97612.21
2024-04-03T09:00:00.129Z,97612.59
2024-04-03T09:02:28.203Z,97609.56
2024-04-03T09:04:56.159Z,97609.67
2024-04-03T09:07:24.228Z,97612.67
2024-04-03T09:09:52.190Z,97615.45
2024-04-03T09:12:25.266Z,97614.86
2024-04-03T09:15:07.927Z,97618.41
2024-04-03T09:17:35.960Z,97617.02
2024-04-03T09:20:05.441Z,97616.36
2024-04-03T09:22:33.434Z,97617.70
2024-04-03T09:25:01.769Z,97612.36
2024-04-03T09:27:29.799Z,97608.05
2024-04-03T09:29:58.265Z,97605.36
2024-04-03T09:32:26.304Z,97601.35
2024-04-03T09:34:54.244Z,97603.66
2024-04-03T09:37:22.150Z,97604.70
2024-04-03T09:39:50.201Z,97602.92
2024-04-03T09:42:23.769Z,97607.04
2024-04-03T09:44:55.027Z,97603.83
2024-04-03T09:47:23.490Z,97605.93
2024-04-03T09:49:52.084Z,97602.02
2024-04-03T09:52:20.187Z,97603.52
2024-04-03T09:54:50.486Z,97600.35
2024-04-03T09:57:18.766Z,97602.15
2024-04-03T09:59:52.368Z,97598.65
2024-04-03T10:02:20.814Z,97592.36
2024-04-03T10:04:49.109Z,97590.90
2024-04-03T10:07:19.905Z,97588.90
2024-04-03T10:09:53.537Z,97585.78
2024-04-03T10:12:24.211Z,97584.20
2024-04-03T10:14:58.503Z,97593.56
2024-04-03T10:17:28.117Z,97585.02
2024-04-03T10:20:00.279Z,97579.59
2024-04-03T10:22:31.816Z,97579.66
2024-04-03T10:24:59.760Z,97580.00
2024-04-03T10:27:28.030Z,97585.74
2024-04-03T10:30:02.994Z,97585.13
2024-04-03T10:32:31.648Z,97580.11
2024-04-03T10:35:00.210Z,97574.84
2024-04-03T10:37:28.794Z,97572.27
2024-04-03T10:39:56.767Z,97565.10
2024-04-03T10:42:24.794Z,97565.27
2024-04-03T10:44:52.870Z,97560.65
2024-04-03T10:47:20.869Z,97554.68
2024-04-03T10:49:48.899Z,97556.17
2024-04-03T10:52:17.590Z,97553.05
2024-04-03T10:54:45.525Z,97552.71
2024-04-03T10:57:13.613Z,97550.59
2024-04-03T10:59:43.482Z,97543.32
2024-04-03T11:02:11.540Z,97540.62
2024-04-03T11:04:41.857Z,97539.36
2024-04-03T11:07:09.780Z,97533.70
2024-04-03T11:09:38.250Z,97531.33
2024-04-03T11:12:06.650Z,97530.27
2024-04-03T11:14:35.675Z,97529.85
2024-04-03T11:17:08.328Z,97527.01
2024-04-03T11:19:37.082Z,97528.27
2024-04-03T11:22:05.778Z,97525.62
2024-04-03T11:24:33.923Z,97529.06
2024-04-03T11:27:02.203Z,97521.41
2024-04-03T11:29:31.719Z,97518.95
2024-04-03T11:32:00.036Z,97521.50
2024-04-03T11:34:31.269Z,97512.05
2024-04-03T11:37:00.263Z,97497.80
2024-04-03T11:39:31.277Z,97502.04
2024-04-03T11:41:59.592Z,97497.83
2024-04-03T11:44:27.857Z,97494.63
2024-04-03T11:46:55.952Z,97494.55
2024-04-03T11:49:24.036Z,97497.66
2024-04-03T11:51:53.092Z,97498.31
2024-04-03T11:54:21.012Z,97495.23
2024-04-03T11:56:48.960Z,97488.29
2024-04-03T11:59:17.314Z,97484.08
2024-04-03T12:01:45.278Z,97483.96
2024-04-03T12:04:13.313Z,97486.19
2024-04-03T12:06:41.456Z,97484.66
2024-04-03T12:09:09.423Z,97486.32
2024-04-03T12:11:37.490Z,97483.61
2024-04-03T12:14:10.642Z,97480.55
2024-04-03T12:16:38.895Z,97470.90
2024-04-03T12:19:25.683Z,97465.45
2024-04-03T12:21:56.916Z,97463.52
2024-04-03T12:24:25.321Z,97474.65
2024-04-03T12:26:53.387Z,97472.27
2024-04-03T12:29:21.500Z,97473.45
2024-04-03T12:31:52.110Z,97474.10
2024-04-03T12:34:20.200Z,97470.23
2024-04-03T12:37:05.193Z,97468.30
2024-04-03T12:39:36.321Z,97462.35
2024-04-03T12:42:04.443Z,97454.08
2024-04-03T12:44:32.333Z,97457.34
2024-04-03T12:47:07.113Z,97452.26
2024-04-03T12:49:36.173Z,97441.02
2024-04-03T12:52:04.512Z,97441.63
2024-04-03T12:54:32.776Z,97441.68
2024-04-03T12:57:00.820Z,97443.01
2024-04-03T12:59:28.737Z,97440.76
2024-04-03T13:01:56.768Z,97431.01
2024-04-03T13:04:24.661Z,97432.30
2024-04-03T13:06:52.676Z,97440.73
2024-04-03T13:09:20.717Z,97439.00
2024-04-03T13:11:48.863Z,97435.52
2024-04-03T13:14:16.824Z,97442.87
2024-04-03T13:16:45.134Z,97439.08
2024-04-03T13:19:13.044Z,97432.23
2024-04-03T13:21:41.138Z,97437.95
2024-04-03T13:24:09.071Z,97433.61
2024-04-03T13:26:37.597Z,97426.77
2024-04-03T13:29:07.288Z,97428.26
2024-04-03T13:31:35.341Z,97438.40
2024-04-03T13:34:03.433Z,97441.41
2024-04-03T13:36:31.356Z,97441.46
2024-04-03T13:38:59.267Z,97441.58
2024-04-03T13:41:27.375Z,97436.58
2024-04-03T13:43:55.390Z,97433.52
2024-04-03T13:55:35.498Z,97433.95
2024-04-03T13:58:05.834Z,97434.95
2024-04-03T14:03:04.115Z,97440.46
2024-04-03T14:05:32.234Z,97438.63
2024-04-03T14:08:00.411Z,97438.06
2024-04-03T14:10:28.324Z,97442.25
2024-04-03T14:12:56.444Z,97439.64
2024-04-03T14:15:24.480Z,97444.09
2024-04-03T14:17:52.531Z,97445.08
2024-04-03T14:20:20.443Z,97447.05
2024-04-03T14:22:48.540Z,97446.83
2024-04-03T14:25:16.590Z,97449.09
2024-04-03T14:27:44.685Z,97449.00
2024-04-03T14:30:14.455Z,97454.15
2024-04-03T14:32:42.487Z,97446.08
2024-04-03T14:35:11.084Z,97451.47
2024-04-03T14:37:39.273Z,97450.89
2024-04-03T14:40:10.046Z,97446.98
2024-04-03T14:42:38.249Z,97445.79
2024-04-03T14:45:06.583Z,97444.51
2024-04-03T14:47:34.889Z,97446.11
2024-04-03T14:50:03.129Z,97449.36
2024-04-03T14:52:31.527Z,97457.04
2024-04-03T14:54:59.578Z,97452.38
2024-04-03T14:57:28.144Z,97454.20
2024-04-03T14:59:56.165Z,97457.58
2024-04-03T15:02:24.619Z,97462.98
2024-04-03T15:04:52.620Z,97467.27
2024-04-03T15:07:20.695Z,97463.61
2024-04-03T15:09:48.591Z,97465.02
2024-04-03T15:12:17.843Z,97468.71
2024-04-03T15:14:48.122Z,97473.21
2024-04-03T15:17:23.869Z,97476.85
2024-04-03T15:19:52.768Z,97483.54
2024-04-03T15:22:21.469Z,97485.23
2024-04-03T15:24:49.775Z,97490.34
2024-04-03T15:27:18.153Z,97497.73
2024-04-03T15:29:46.524Z,97500.63
2024-04-03T15:32:14.721Z,97498.11
2024-04-03T15:34:43.594Z,97499.98
2024-04-03T15:37:11.858Z,97499.77
2024-04-03T15:39:40.186Z,97506.52
2024-04-03T15:42:08.355Z,97505.75
2024-04-03T15:44:36.367Z,97509.39
2024-04-03T15:47:07.082Z,97509.92
2024-04-03T15:49:35.496Z,97515.29
2024-04-03T15:52:03.644Z,97517.64
2024-04-03T15:54:31.646Z,97522.46
2024-04-03T15:56:59.542Z,97522.89
2024-04-03T15:59:27.712Z,97524.30
2024-04-03T16:01:55.760Z,97528.00
2024-04-03T16:04:24.229Z,97527.48
2024-04-03T16:06:52.218Z,97530.48
2024-04-03T16:09:20.250Z,97531.44
2024-04-03T16:11:48.389Z,97532.97
2024-04-03T16:14:16.951Z,97534.47
2024-04-03T16:16:45.045Z,97534.25
2024-04-03T16:19:13.145Z,97529.85
2024-04-03T16:21:42.834Z,97528.88
2024-04-03T16:24:10.939Z,97530.90
2024-04-03T16:26:39.124Z,97537.34
2024-04-03T16:29:07.029Z,97543.48
2024-04-03T16:31:34.964Z,97547.40
2024-04-03T16:34:02.920Z,97552.45
2024-04-03T16:36:30.956Z,97556.73
2024-04-03T16:38:59.098Z,97563.05
2024-04-03T16:41:27.206Z,97564.20
2024-04-03T16:43:55.124Z,97565.27
2024-04-03T16:46:27.145Z,97566.82
2024-04-03T16:48:55.242Z,97565.30
2024-04-03T16:51:23.237Z,97567.65
2024-04-03T16:53:51.394Z,97571.02
2024-04-03T16:56:19.625Z,97572.35
2024-04-03T16:58:47.618Z,97578.88
2024-04-03T17:01:15.667Z,97583.17
2024-04-03T17:03:47.918Z,97587.41
2024-04-03T17:06:19.356Z,97588.69
2024-04-03T17:08:47.219Z,97591.30
2024-04-03T17:11:15.254Z,97596.38
2024-04-03T17:13:43.232Z,97605.48
2024-04-03T17:16:11.195Z,97613.32
2024-04-03T17:18:39.205Z,97612.58
2024-04-03T17:30:30.682Z,97623.73
2024-04-03T17:33:00.016Z,97632.15
2024-04-03T17:35:28.041Z,97635.14
2024-04-03T17:37:56.378Z,97641.29
2024-04-03T17:40:24.358Z,97643.66
2024-04-03T17:42:55.447Z,97652.64
2024-04-03T17:45:23.483Z,97655.52
2024-04-03T17:47:51.549Z,97655.73
2024-04-03T17:50:19.684Z,97655.09
2024-04-03T17:52:47.682Z,97658.15
2024-04-03T17:55:15.625Z,97658.55
2024-04-03T17:57:43.610Z,97664.02
2024-04-03T18:00:12.727Z,97663.33
2024-04-03T18:02:41.103Z,97667.08
2024-04-03T18:05:09.101Z,97670.88
2024-04-03T18:07:40.871Z,97675.94
2024-04-03T18:10:09.000Z,97679.35
2024-04-03T18:12:37.408Z,97677.75
2024-04-03T18:15:05.704Z,97682.63
2024-04-03T18:17:34.050Z,97678.98
2024-04-03T18:20:01.973Z,97675.77
2024-04-03T18:22:30.192Z,97683.44
2024-04-03T18:24:59.744Z,97692.08
2024-04-03T18:27:27.685Z,97693.13
2024-04-03T18:30:01.233Z,97693.08
2024-04-03T18:32:29.665Z,97690.75
2024-04-03T18:34:57.577Z,97692.95
2024-04-03T18:37:25.585Z,97692.21
2024-04-03T18:39:53.616Z,97692.38
2024-04-03T18:42:21.725Z,97692.02
2024-04-03T18:44:49.729Z,97690.77
2024-04-03T18:47:17.762Z,97698.11
2024-04-03T18:49:45.779Z,97699.56
2024-04-03T18:52:14.579Z,97697.42
2024-04-03T18:54:42.860Z,97694.53
2024-04-03T18:57:10.760Z,97695.27
2024-04-03T18:59:38.827Z,97687.50
2024-04-03T19:02:06.887Z,97697.95
2024-04-03T19:04:34.823Z,97697.98
2024-04-03T19:07:04.174Z,97695.52
2024-04-03T19:09:32.214Z,97693.87
2024-04-03T19:12:00.260Z,97690.88
2024-04-03T19:14:28.164Z,97690.65
2024-04-03T19:16:57.576Z,97685.77
2024-04-03T19:19:25.893Z,97685.34
2024-04-03T19:21:55.925Z,97685.80
2024-04-03T19:24:23.912Z,97690.13
2024-04-03T19:26:52.010Z,97692.20
2024-04-03T19:29:20.250Z,97691.70
2024-04-03T19:31:48.921Z,97696.09
2024-04-03T19:34:16.878Z,97699.54
2024-04-03T19:36:44.873Z,97697.39
2024-04-03T19:39:12.770Z,97687.75
2024-04-03T19:41:40.758Z,97680.98
2024-04-03T19:44:08.870Z,97684.62
2024-04-03T19:46:36.895Z,97682.69
2024-04-03T19:49:04.877Z,97686.34
2024-04-03T19:51:33.968Z,97686.77
2024-04-03T19:54:02.523Z,97690.23
2024-04-03T19:56:30.541Z,97688.34
2024-04-03T19:58:58.520Z,97690.65
2024-04-03T20:01:26.540Z,97691.66
2024-04-03T20:03:54.494Z,97692.00
2024-04-03T20:06:22.603Z,97689.04
2024-04-03T20:08:50.568Z,97686.89
2024-04-03T20:11:18.563Z,97689.30
2024-04-03T20:13:46.874Z,97684.84
2024-04-03T20:16:14.890Z,97685.17
2024-04-03T20:18:42.937Z,97690.52
2024-04-03T20:21:10.935Z,97690.63
2024-04-03T20:23:41.139Z,97696.19
2024-04-03T20:26:09.134Z,97697.58
2024-04-03T20:28:37.032Z,97699.07
2024-04-03T20:31:06.835Z,97702.16
2024-04-03T20:33:34.755Z,97702.33
2024-04-03T20:36:02.842Z,97702.66
2024-04-03T20:38:30.812Z,97703.73
2024-04-03T20:40:59.070Z,97708.51
2024-04-03T20:43:27.058Z,97711.65
2024-04-03T20:45:55.314Z,97714.49
2024-04-03T20:48:23.229Z,97709.60
2024-04-03T20:50:51.210Z,97712.66
2024-04-03T20:53:19.284Z,97714.42
2024-04-03T20:55:47.241Z,97705.36
2024-04-03T20:58:15.258Z,97708.42
2024-04-03T21:00:43.273Z,97709.98
2024-04-03T21:03:12.111Z,97710.30
2024-04-03T21:05:40.196Z,97710.02
2024-04-03T21:08:08.109Z,97707.84
2024-04-03T21:10:36.041Z,97710.52
2024-04-03T21:13:05.169Z,97710.02
2024-04-03T21:15:33.250Z,97710.73
2024-04-03T21:18:02.762Z,97710.73
2024-04-03T21:20:31.388Z,97707.61
2024-04-03T21:22:59.421Z,97711.48
2024-04-03T21:25:28.228Z,97712.80
2024-04-03T21:27:56.320Z,97712.30
2024-04-03T21:30:24.361Z,97712.36
2024-04-03T21:32:52.295Z,97707.16
2024-04-03T21:35:20.244Z,97702.00
2024-04-03T21:37:48.171Z,97696.27
2024-04-03T21:40:16.416Z,97700.60
2024-04-03T21:42:44.405Z,97702.34
2024-04-03T21:45:12.342Z,97701.67
2024-04-03T21:47:40.245Z,97703.17
2024-04-03T21:50:08.203Z,97702.91
2024-04-03T21:52:36.800Z,97703.87
2024-04-03T21:55:05.017Z,97703.37
2024-04-03T21:57:33.604Z,97702.11
2024-04-03T22:00:01.865Z,97700.99
2024-04-03T22:02:30.135Z,97697.48
2024-04-03T22:04:58.090Z,97694.33
2024-04-03T22:07:26.122Z,97688.46
2024-04-03T22:09:54.244Z,97682.04
2024-04-03T22:12:22.390Z,97678.11
2024-04-03T22:14:50.400Z,97675.81
2024-04-03T22:17:18.406Z,97683.69
2024-04-03T22:19:47.357Z,97682.87
2024-04-03T22:22:15.385Z,97685.34
2024-04-03T22:24:43.396Z,97685.55
2024-04-03T22:27:11.414Z,97678.91
2024-04-03T22:29:39.723Z,97677.54
2024-04-03T22:32:08.322Z,97674.45
2024-04-03T22:34:36.363Z,97675.40
2024-04-03T22:37:04.457Z,97675.23
2024-04-03T22:39:32.423Z,97679.94
2024-04-03T22:42:00.437Z,97680.92
2024-04-03T22:44:28.574Z,97682.15
2024-04-03T22:46:56.478Z,97678.67
2024-04-03T22:49:24.411Z,97675.42
2024-04-03T22:51:52.440Z,97672.53
2024-04-03T22:54:20.592Z,97668.73
2024-04-03T22:56:48.618Z,97665.33
2024-04-03T22:59:16.570Z,97661.73
2024-04-03T23:01:44.433Z,97664.66
2024-04-03T23:04:12.470Z,97660.42
2024-04-03T23:06:40.346Z,97661.66
2024-04-03T23:09:08.322Z,97656.25
2024-04-03T23:11:36.199Z,97655.88
2024-04-03T23:14:04.508Z,97650.08
2024-04-03T23:16:32.544Z,97655.75
2024-04-03T23:19:00.471Z,97653.91
2024-04-03T23:21:28.345Z,97653.38
2024-04-03T23:23:56.202Z,97651.98
2024-04-03T23:26:24.104Z,97647.97
2024-04-03T23:28:52.168Z,97650.33
2024-04-03T23:31:20.285Z,97649.14
2024-04-03T23:33:48.233Z,97651.45
2024-04-03T23:36:16.301Z,97652.56
2024-04-03T23:38:44.258Z,97653.63
2024-04-03T23:41:12.255Z,97655.98
2024-04-03T23:43:40.150Z,97660.92
2024-04-03T23:46:08.086Z,97660.14
2024-04-03T23:48:36.121Z,97658.25
2024-04-03T23:51:04.482Z,97651.36
2024-04-03T23:53:32.549Z,97650.73
2024-04-03T23:56:03.841Z,97651.38
2024-04-03T23:58:31.801Z,97647.79
